Time;durP1;ratioP1;P1;durP2;ratioP2;P2;SDS_P1;SDS_P2;PMS_P1;PMS_P2;Temp;Humidity;BMP_temperature;BMP_pressure;BME280_temperature;BME280_humidity;BME280_pressure;Samples;Min_cycle;Max_cycle;Signal;HPM_P1;HPM_P2
2022/05/22 00:02:04;;;;;;;9.43;2.27;;;13.40;99.90;;;;;;5109626;27;21511;-64
2022/05/22 00:04:32;;;;;;;7.43;2.23;;;13.40;99.90;;;;;;5104922;27;20662;-63
2022/05/22 00:07:00;;;;;;;8.33;2.17;;;13.40;99.90;;;;;;5108058;27;20859;-63
2022/05/22 00:09:29;;;;;;;7.93;2.10;;;13.30;99.90;;;;;;5108199;27;20257;-64
2022/05/22 00:11:58;;;;;;;5.93;1.97;;;13.30;99.90;;;;;;5110726;27;20274;-64
2022/05/22 00:14:26;;;;;;;7.47;2.30;;;13.20;99.90;;;;;;5107601;27;20244;-64
2022/05/22 00:16:59;;;;;;;8.33;2.40;;;13.20;99.90;;;;;;5108726;27;20234;-64
2022/05/22 00:19:32;;;;;;;9.20;2.00;;;13.30;99.90;;;;;;5106579;27;20237;-64
2022/05/22 00:22:01;;;;;;;9.50;2.30;;;13.20;99.90;;;;;;5105706;27;20244;-64
2022/05/22 00:24:31;;;;;;;5.03;1.83;;;13.10;99.90;;;;;;5105978;27;20241;-63
2022/05/22 00:27:00;;;;;;;5.43;1.80;;;13.10;99.90;;;;;;5106675;27;20251;-64
2022/05/22 00:29:30;;;;;;;6.83;1.90;;;13.10;99.90;;;;;;5109639;27;20248;-63
2022/05/22 00:32:00;;;;;;;5.90;1.93;;;13.10;99.90;;;;;;5106153;27;20244;-63
2022/05/22 00:34:28;;;;;;;9.70;2.17;;;13.20;99.90;;;;;;5095146;27;20237;-64
2022/05/22 00:36:57;;;;;;;6.70;1.87;;;13.10;99.90;;;;;;5108907;27;20357;-63
2022/05/22 00:39:25;;;;;;;8.13;2.67;;;13.10;99.90;;;;;;5108339;27;20294;-64
2022/05/22 00:41:56;;;;;;;6.07;1.80;;;13.20;99.90;;;;;;5115621;27;20314;-65
2022/05/22 00:44:24;;;;;;;9.20;2.10;;;13.20;99.90;;;;;;5105084;27;20268;-63
2022/05/22 00:46:53;;;;;;;5.97;2.13;;;13.10;99.90;;;;;;5106462;27;20240;-64
2022/05/22 00:49:25;;;;;;;7.53;2.20;;;13.00;99.90;;;;;;5095502;27;20244;-63
2022/05/22 00:51:58;;;;;;;7.37;2.27;;;13.00;99.90;;;;;;5094749;27;20328;-64
2022/05/22 00:54:32;;;;;;;7.00;2.07;;;13.00;99.90;;;;;;5105456;27;20241;-64
2022/05/22 00:57:06;;;;;;;6.17;2.67;;;13.10;99.90;;;;;;5095840;27;20871;-64
2022/05/22 00:59:38;;;;;;;4.57;2.10;;;13.00;99.90;;;;;;5108283;27;20245;-63
2022/05/22 01:02:06;;;;;;;8.07;2.40;;;12.90;99.90;;;;;;5107844;27;20250;-64
2022/05/22 01:04:37;;;;;;;7.97;2.83;;;12.90;99.90;;;;;;5103982;27;20740;-64
2022/05/22 01:07:08;;;;;;;7.70;2.50;;;12.80;99.90;;;;;;5104463;27;20482;-64
2022/05/22 01:09:37;;;;;;;8.40;2.57;;;12.70;99.90;;;;;;5109523;27;20241;-63
2022/05/22 01:12:16;;;;;;;7.23;2.13;;;12.80;99.90;;;;;;5094690;27;20254;-63
2022/05/22 01:14:49;;;;;;;8.33;2.70;;;12.80;99.90;;;;;;5092907;27;20239;-63
2022/05/22 01:17:17;;;;;;;6.50;2.40;;;12.80;99.90;;;;;;5107829;27;20238;-63
2022/05/22 01:19:56;;;;;;;6.60;2.37;;;12.80;99.90;;;;;;5092521;28;20237;-64
2022/05/22 01:22:27;;;;;;;8.43;2.90;;;12.80;99.90;;;;;;5093588;27;20293;-64
2022/05/22 01:24:58;;;;;;;8.73;2.57;;;12.70;99.90;;;;;;5093713;27;20245;-63
2022/05/22 01:27:27;;;;;;;6.70;2.07;;;12.50;99.90;;;;;;5095949;28;20296;-63
2022/05/22 01:30:10;;;;;;;5.17;2.23;;;12.50;99.90;;;;;;5094041;27;20595;-63
2022/05/22 01:32:40;;;;;;;6.37;2.33;;;12.60;99.90;;;;;;5091934;27;20590;-63
2022/05/22 01:35:10;;;;;;;7.13;2.50;;;12.70;99.90;;;;;;5093459;27;20591;-63
2022/05/22 01:37:40;;;;;;;6.53;2.33;;;12.80;99.90;;;;;;5092368;27;20228;-63
2022/05/22 01:40:12;;;;;;;5.77;1.80;;;12.90;99.90;;;;;;5092767;28;20247;-63
2022/05/22 01:42:41;;;;;;;5.13;2.23;;;12.90;99.90;;;;;;5094460;28;20236;-63
2022/05/22 01:45:13;;;;;;;6.43;1.90;;;12.70;99.90;;;;;;5095961;28;20248;-63
2022/05/22 01:47:42;;;;;;;6.50;2.20;;;12.80;99.90;;;;;;5095781;27;20237;-64
2022/05/22 01:50:12;;;;;;;6.17;2.07;;;13.00;99.90;;;;;;5107200;27;20760;-63
2022/05/22 01:52:42;;;;;;;4.23;1.90;;;12.90;99.90;;;;;;5108171;27;20244;-63
2022/05/22 01:55:12;;;;;;;6.27;2.50;;;12.90;99.90;;;;;;5092997;28;20740;-64
2022/05/22 01:57:45;;;;;;;3.97;1.93;;;12.90;99.90;;;;;;5097748;28;20239;-63
2022/05/22 02:00:20;;;;;;;5.40;2.20;;;12.90;99.90;;;;;;5093683;28;20334;-63
2022/05/22 02:02:55;;;;;;;5.63;2.20;;;12.90;99.90;;;;;;5092397;28;20232;-64
2022/05/22 02:05:31;;;;;;;6.37;2.50;;;12.70;99.90;;;;;;5094719;28;20229;-63
2022/05/22 02:08:19;;;;;;;8.33;2.50;;;12.70;99.90;;;;;;5090265;28;20669;-63
2022/05/22 02:10:52;;;;;;;7.07;2.47;;;12.70;99.90;;;;;;5095840;28;20248;-63
2022/05/22 02:13:23;;;;;;;6.43;2.50;;;12.70;99.90;;;;;;5093455;27;20244;-63
2022/05/22 02:15:52;;;;;;;7.20;2.20;;;12.60;99.90;;;;;;5100009;27;20271;-64
2022/05/22 02:18:21;;;;;;;6.73;2.47;;;12.60;99.90;;;;;;5101145;27;20245;-63
2022/05/22 02:20:50;;;;;;;8.13;3.00;;;12.80;99.90;;;;;;5099149;27;20248;-63
2022/05/22 02:23:20;;;;;;;4.30;2.20;;;12.50;99.90;;;;;;5110170;27;20584;-63
2022/05/22 02:25:51;;;;;;;6.87;2.33;;;12.50;99.90;;;;;;5099916;27;20233;-64
2022/05/22 02:28:22;;;;;;;6.23;2.20;;;12.60;99.90;;;;;;5097959;28;20248;-63
2022/05/22 02:30:57;;;;;;;5.63;2.60;;;12.40;99.90;;;;;;5098649;27;20268;-63
2022/05/22 02:33:26;;;;;;;5.73;2.57;;;12.50;99.90;;;;;;5091466;27;20730;-64
2022/05/22 02:36:03;;;;;;;5.37;2.50;;;12.50;99.90;;;;;;5112952;27;20243;-63
2022/05/22 02:38:36;;;;;;;6.57;2.70;;;12.60;99.90;;;;;;5098461;27;20238;-63
2022/05/22 02:41:11;;;;;;;5.93;2.40;;;12.60;99.90;;;;;;5100716;27;20564;-63
2022/05/22 02:43:41;;;;;;;5.50;2.43;;;12.60;99.90;;;;;;5096153;27;21144;-63
2022/05/22 02:46:17;;;;;;;6.87;2.80;;;12.70;99.90;;;;;;5097653;28;20761;-63
2022/05/22 02:48:46;;;;;;;7.77;2.90;;;12.60;99.90;;;;;;5096209;27;21571;-63
2022/05/22 02:51:16;;;;;;;6.07;2.63;;;12.70;99.90;;;;;;5113924;27;20236;-63
2022/05/22 02:53:46;;;;;;;11.67;3.07;;;12.60;99.90;;;;;;5094009;27;20714;-63
2022/05/22 02:56:21;;;;;;;9.80;3.37;;;12.60;99.90;;;;;;5110208;27;20236;-63
2022/05/22 02:59:12;;;;;;;9.90;3.33;;;12.60;99.90;;;;;;5097807;27;20253;-63
2022/05/22 03:02:01;;;;;;;7.33;3.00;;;12.70;99.90;;;;;;5097214;27;20226;-64
2022/05/22 03:04:31;;;;;;;8.43;2.93;;;12.50;99.90;;;;;;5108535;27;20233;-63
2022/05/22 03:07:05;;;;;;;9.00;2.97;;;12.50;99.90;;;;;;5093026;27;20730;-63
2022/05/22 03:09:37;;;;;;;6.10;3.27;;;12.50;99.90;;;;;;5099262;27;20294;-63
2022/05/22 03:12:07;;;;;;;6.27;2.90;;;12.40;99.90;;;;;;5099226;27;20678;-63
2022/05/22 03:14:43;;;;;;;8.67;3.87;;;12.30;99.90;;;;;;5093899;27;20237;-63
2022/05/22 03:17:11;;;;;;;10.17;3.90;;;12.30;99.90;;;;;;5095331;27;20740;-63
2022/05/22 03:19:47;;;;;;;6.63;3.37;;;12.40;99.90;;;;;;5115296;27;20302;-63
2022/05/22 03:22:16;;;;;;;9.73;3.60;;;12.50;99.90;;;;;;5118269;27;20345;-63
2022/05/22 03:24:45;;;;;;;8.23;3.60;;;12.50;99.90;;;;;;5094921;27;20244;-63
2022/05/22 03:27:16;;;;;;;9.50;4.10;;;12.40;99.90;;;;;;5095985;28;20512;-63
2022/05/22 03:29:45;;;;;;;9.33;3.50;;;12.30;99.90;;;;;;5096446;27;20235;-64
2022/05/22 03:32:14;;;;;;;9.47;3.80;;;12.30;99.90;;;;;;5108984;27;20323;-63
2022/05/22 03:34:43;;;;;;;9.67;3.80;;;12.30;99.90;;;;;;5093428;27;20604;-63
2022/05/22 03:37:14;;;;;;;10.10;4.17;;;12.20;99.90;;;;;;5100860;27;20247;-63
2022/05/22 03:39:44;;;;;;;9.17;4.33;;;12.10;99.90;;;;;;5097255;27;20712;-63
2022/05/22 03:42:14;;;;;;;11.63;4.23;;;12.00;99.90;;;;;;5112295;27;20239;-63
2022/05/22 03:44:43;;;;;;;10.07;3.90;;;12.00;99.90;;;;;;5094023;27;20323;-63
2022/05/22 03:47:11;;;;;;;8.87;3.67;;;11.90;99.90;;;;;;5094559;27;20751;-63
2022/05/22 03:50:04;;;;;;;8.83;4.40;;;11.90;99.90;;;;;;5099639;27;20244;-63
2022/05/22 03:52:33;;;;;;;9.33;4.50;;;11.90;99.90;;;;;;5096797;27;21000;-63
2022/05/22 03:55:04;;;;;;;8.47;4.10;;;12.00;99.90;;;;;;5094951;27;20236;-63
2022/05/22 03:57:33;;;;;;;12.57;5.00;;;11.90;99.90;;;;;;5095320;27;20271;-63
2022/05/22 04:00:02;;;;;;;7.43;3.97;;;11.90;99.90;;;;;;5096299;27;20332;-63
2022/05/22 04:02:33;;;;;;;9.10;4.63;;;12.00;99.90;;;;;;5112100;27;20240;-63
2022/05/22 04:05:01;;;;;;;9.10;4.57;;;12.00;99.90;;;;;;5095204;27;20282;-63
2022/05/22 04:07:30;;;;;;;7.60;4.10;;;12.00;99.90;;;;;;5094905;27;20268;-63
2022/05/22 04:10:04;;;;;;;10.77;4.30;;;12.10;99.90;;;;;;5096191;27;20308;-63
2022/05/22 04:12:38;;;;;;;7.27;4.03;;;12.10;99.90;;;;;;5097147;27;20632;-63
2022/05/22 04:15:10;;;;;;;9.57;4.30;;;12.20;99.90;;;;;;5091955;27;20797;-63
2022/05/22 04:17:38;;;;;;;8.13;4.80;;;12.20;99.90;;;;;;5118459;27;20319;-63
2022/05/22 04:20:18;;;;;;;6.50;3.83;;;12.30;99.90;;;;;;5100907;27;20856;-62
2022/05/22 04:25:35;;;;;;;13.50;4.50;;;12.50;99.90;;;;;;5111359;27;20251;-63
2022/05/22 04:28:04;;;;;;;8.90;4.83;;;12.60;99.90;;;;;;5096250;27;20241;-63
2022/05/22 04:30:32;;;;;;;10.53;4.47;;;12.60;99.90;;;;;;5096867;27;20605;-64
2022/05/22 04:33:06;;;;;;;7.03;4.07;;;12.60;99.90;;;;;;5087393;27;20244;-63
2022/05/22 04:35:35;;;;;;;12.87;4.47;;;12.60;99.90;;;;;;5112878;27;20660;-63
2022/05/22 04:38:04;;;;;;;9.43;4.33;;;12.60;99.90;;;;;;5095116;27;20241;-63
2022/05/22 04:40:35;;;;;;;6.23;3.90;;;12.70;99.90;;;;;;5095506;27;20707;-63
2022/05/22 04:43:04;;;;;;;9.03;4.33;;;12.70;99.90;;;;;;5092666;27;20256;-63
2022/05/22 04:45:33;;;;;;;8.00;4.70;;;12.70;99.90;;;;;;5096336;28;20363;-64
2022/05/22 04:48:04;;;;;;;9.97;4.90;;;12.70;99.90;;;;;;5096614;27;20243;-63
2022/05/22 04:51:02;;;;;;;8.53;4.30;;;12.70;99.90;;;;;;5096674;27;20236;-63
2022/05/22 04:53:42;;;;;;;11.03;4.87;;;12.70;99.90;;;;;;5093085;27;20239;-63
2022/05/22 04:56:21;;;;;;;10.77;4.63;;;12.70;99.90;;;;;;5095313;27;20335;-63
2022/05/22 04:58:53;;;;;;;8.57;4.30;;;12.70;99.90;;;;;;5095604;27;20306;-63
2022/05/22 05:01:24;;;;;;;10.43;4.57;;;12.70;99.90;;;;;;5107748;27;20242;-63
2022/05/22 05:04:15;;;;;;;8.70;4.80;;;12.70;99.90;;;;;;5094864;27;20257;-64
2022/05/22 05:07:10;;;;;;;6.47;4.27;;;12.80;99.90;;;;;;5104338;27;20271;-64
2022/05/22 05:09:48;;;;;;;9.03;4.40;;;12.80;99.90;;;;;;5109216;27;20240;-63
2022/05/22 05:12:29;;;;;;;7.93;4.10;;;12.80;99.90;;;;;;5095134;27;20237;-63
2022/05/22 05:14:57;;;;;;;10.33;4.10;;;12.90;99.90;;;;;;5107438;27;20320;-64
2022/05/22 05:17:26;;;;;;;8.20;4.13;;;12.90;99.90;;;;;;5095006;27;20245;-64
2022/05/22 05:19:54;;;;;;;8.97;4.30;;;12.90;99.90;;;;;;5093840;27;20266;-63
2022/05/22 05:22:23;;;;;;;7.43;4.40;;;13.00;99.90;;;;;;5092958;27;20239;-63
2022/05/22 05:25:01;;;;;;;11.50;4.30;;;13.00;99.90;;;;;;5091462;27;20606;-64
2022/05/22 05:27:34;;;;;;;11.83;4.20;;;13.00;99.90;;;;;;5091505;28;20240;-64
2022/05/22 05:30:20;;;;;;;8.27;4.10;;;13.20;99.90;;;;;;5113186;27;20712;-63
2022/05/22 05:32:48;;;;;;;8.47;4.30;;;13.40;99.90;;;;;;5090860;28;20668;-64
2022/05/22 05:35:35;;;;;;;10.20;4.53;;;13.60;99.90;;;;;;5106643;27;20248;-64
2022/05/22 05:38:07;;;;;;;10.43;4.57;;;13.70;99.90;;;;;;5097949;27;20249;-64
2022/05/22 05:40:36;;;;;;;7.40;4.10;;;13.70;99.90;;;;;;5093468;27;20317;-64
2022/05/22 05:43:06;;;;;;;10.10;4.53;;;13.70;99.90;;;;;;5104671;27;20241;-63
2022/05/22 05:45:35;;;;;;;8.50;3.87;;;13.90;99.90;;;;;;5095366;28;20234;-63
2022/05/22 05:48:04;;;;;;;7.80;3.83;;;14.20;99.90;;;;;;5107026;27;20244;-63
2022/05/22 05:50:44;;;;;;;7.03;4.30;;;14.40;99.90;;;;;;5093033;28;20248;-63
2022/05/22 05:53:32;;;;;;;7.90;3.40;;;14.80;99.90;;;;;;5108483;27;20244;-64
2022/05/22 05:56:32;;;;;;;10.20;4.23;;;15.20;99.90;;;;;;5013799;28;20248;-64
2022/05/22 05:59:28;;;;;;;7.57;3.60;;;15.50;99.90;;;;;;5104856;28;20229;-64
2022/05/22 06:02:05;;;;;;;8.93;3.53;;;15.80;99.90;;;;;;5092751;28;20277;-64
2022/05/22 06:04:33;;;;;;;8.83;3.67;;;16.20;99.90;;;;;;5103999;28;20237;-64
2022/05/22 06:07:03;;;;;;;8.20;3.10;;;16.50;99.90;;;;;;5091199;28;20261;-64
2022/05/22 06:09:31;;;;;;;7.67;3.47;;;16.90;99.90;;;;;;5096124;28;20225;-64
2022/05/22 06:12:23;;;;;;;9.33;2.90;;;17.10;99.90;;;;;;5095481;28;20226;-64
2022/05/22 06:14:59;;;;;;;8.37;2.63;;;17.40;99.90;;;;;;5087821;28;20232;-64
2022/05/22 06:17:32;;;;;;;6.60;2.60;;;17.60;99.90;;;;;;5096868;28;20244;-64
2022/05/22 06:20:01;;;;;;;6.60;2.60;;;18.00;99.90;;;;;;5094303;28;20280;-64
2022/05/22 06:22:45;;;;;;;11.57;2.80;;;18.20;99.90;;;;;;5091905;28;20670;-64
2022/05/22 06:25:48;;;;;;;7.10;2.50;;;18.30;99.90;;;;;;5032778;28;20240;-64
2022/05/22 06:28:35;;;;;;;8.20;2.57;;;18.20;99.90;;;;;;5087794;28;20292;-64
2022/05/22 06:31:24;;;;;;;10.00;3.20;;;18.10;99.90;;;;;;5105650;28;20442;-64
2022/05/22 06:34:27;;;;;;;5.87;3.00;;;18.20;99.90;;;;;;5068116;28;20234;-64
2022/05/22 06:37:17;;;;;;;5.47;2.53;;;18.30;99.90;;;;;;5105085;28;20244;-64
2022/05/22 06:39:59;;;;;;;9.80;3.17;;;18.30;99.90;;;;;;5090505;28;20238;-65
2022/05/22 06:42:48;;;;;;;6.87;2.90;;;18.50;99.90;;;;;;5063753;28;20236;-64
2022/05/22 06:45:22;;;;;;;7.53;2.60;;;18.60;99.90;;;;;;5096714;28;20231;-64
2022/05/22 06:48:27;;;;;;;11.70;2.83;;;18.60;99.90;;;;;;5099626;28;20234;-65
2022/05/22 06:51:13;;;;;;;6.90;2.40;;;18.50;99.90;;;;;;5101347;28;20230;-65
2022/05/22 06:54:07;;;;;;;6.03;2.30;;;18.70;99.90;;;;;;5098385;28;20238;-65
2022/05/22 06:57:05;;;;;;;7.27;2.73;;;18.80;99.90;;;;;;5068555;28;20270;-65
2022/05/22 06:59:57;;;;;;;6.80;2.30;;;18.80;99.90;;;;;;5087940;27;20245;-64
2022/05/22 07:02:52;;;;;;;6.47;2.20;;;18.80;99.90;;;;;;5067505;27;20686;-64
2022/05/22 07:05:43;;;;;;;6.80;2.23;;;19.20;99.90;;;;;;5088397;27;20239;-65
2022/05/22 07:08:38;;;;;;;5.10;1.53;;;19.30;99.90;;;;;;5096980;27;20588;-65
2022/05/22 07:11:41;;;;;;;5.97;1.90;;;19.60;99.90;;;;;;5047394;27;20241;-65
2022/05/22 07:14:29;;;;;;;6.20;1.80;;;19.70;99.90;;;;;;5098055;27;20730;-65
2022/05/22 07:17:14;;;;;;;5.60;2.47;;;19.40;99.90;;;;;;5102673;27;20259;-65
2022/05/22 07:20:10;;;;;;;7.20;1.80;;;18.70;99.90;;;;;;5067416;27;20240;-65
2022/05/22 07:22:45;;;;;;;8.27;2.03;;;18.20;99.90;;;;;;5096735;27;20702;-65
2022/05/22 07:25:36;;;;;;;8.77;1.93;;;17.60;99.90;;;;;;5085858;27;20685;-65
2022/05/22 07:28:17;;;;;;;6.70;1.70;;;17.80;99.90;;;;;;5092256;27;20793;-65
2022/05/22 07:31:15;;;;;;;3.93;1.80;;;18.30;99.90;;;;;;5013548;27;20244;-65
2022/05/22 07:33:43;;;;;;;4.60;1.63;;;18.90;99.90;;;;;;5107273;27;20263;-65
2022/05/22 07:36:21;;;;;;;4.83;1.80;;;19.50;99.90;;;;;;5096714;27;20268;-64
2022/05/22 07:39:16;;;;;;;4.33;1.80;;;19.90;99.90;;;;;;5081949;27;20279;-65
2022/05/22 07:41:57;;;;;;;4.57;1.27;;;20.60;99.90;;;;;;5108259;27;20245;-65
2022/05/22 07:44:33;;;;;;;5.90;1.43;;;21.10;99.90;;;;;;5092835;27;20247;-65
2022/05/22 07:47:24;;;;;;;5.63;1.80;;;21.40;99.90;;;;;;5096631;27;20297;-66
2022/05/22 07:50:17;;;;;;;3.57;1.13;;;21.60;99.90;;;;;;5111870;27;20311;-65
2022/05/22 07:53:01;;;;;;;5.13;1.40;;;21.80;99.90;;;;;;5105658;27;20238;-65
2022/05/22 07:55:31;;;;;;;3.23;1.10;;;21.90;99.90;;;;;;5109423;27;20241;-65
2022/05/22 07:58:19;;;;;;;4.83;1.60;;;22.10;99.90;;;;;;5109362;27;20243;-66
2022/05/22 08:00:48;;;;;;;4.80;1.30;;;22.30;99.90;;;;;;5109046;27;20570;-65
2022/05/22 08:03:36;;;;;;;4.70;1.40;;;22.30;99.90;;;;;;5106899;27;20320;-66
2022/05/22 08:06:05;;;;;;;2.83;1.00;;;22.20;99.90;;;;;;5099176;27;20244;-66
2022/05/22 08:08:37;;;;;;;3.90;1.30;;;21.80;99.90;;;;;;5097143;27;20287;-65
2022/05/22 08:11:22;;;;;;;4.83;0.97;;;21.70;99.90;;;;;;5089436;28;20245;-65
2022/05/22 08:14:02;;;;;;;6.40;1.47;;;22.00;99.90;;;;;;5091618;27;20377;-66
2022/05/22 08:16:35;;;;;;;4.17;1.40;;;22.30;99.90;;;;;;5083163;27;20242;-65
2022/05/22 08:19:12;;;;;;;5.57;1.67;;;22.50;99.90;;;;;;5085427;27;21080;-65
2022/05/22 08:21:59;;;;;;;3.23;1.10;;;22.50;99.90;;;;;;5103172;27;20252;-65
2022/05/22 08:24:46;;;;;;;2.23;0.90;;;22.60;99.90;;;;;;5080214;27;20256;-65
2022/05/22 08:27:16;;;;;;;4.73;1.20;;;22.70;99.90;;;;;;5106044;27;20319;-66
2022/05/22 08:29:44;;;;;;;4.07;1.13;;;23.10;99.90;;;;;;5088499;27;20317;-65
2022/05/22 08:32:12;;;;;;;5.07;1.30;;;23.20;99.90;;;;;;5086239;27;20612;-66
2022/05/22 08:34:40;;;;;;;2.97;1.13;;;23.40;99.90;;;;;;5100298;27;20661;-66
2022/05/22 08:37:09;;;;;;;3.97;0.90;;;23.30;99.90;;;;;;5100234;27;20712;-66
2022/05/22 08:39:37;;;;;;;4.03;1.10;;;23.50;99.90;;;;;;5101583;27;20237;-65
2022/05/22 08:42:10;;;;;;;3.70;1.30;;;23.40;99.90;;;;;;5101873;27;20229;-65
2022/05/22 08:44:40;;;;;;;3.60;1.13;;;22.90;99.90;;;;;;5098306;27;20587;-66
2022/05/22 08:47:18;;;;;;;5.00;0.93;;;23.00;99.90;;;;;;5105693;27;20586;-65
2022/05/22 08:49:49;;;;;;;3.90;1.00;;;23.40;99.90;;;;;;5105938;27;20229;-65
2022/05/22 08:52:27;;;;;;;3.87;0.93;;;24.00;99.90;;;;;;5104832;27;20283;-66
2022/05/22 08:55:07;;;;;;;3.57;1.23;;;23.60;99.90;;;;;;5098260;27;20371;-65
2022/05/22 09:00:52;;;;;;;3.33;1.17;;;22.20;99.90;;;;;;5100934;27;20806;-65
2022/05/22 09:03:25;;;;;;;4.80;1.20;;;21.20;99.90;;;;;;5099928;27;20248;-66
2022/05/22 09:05:56;;;;;;;3.07;1.17;;;20.70;99.90;;;;;;5101124;27;20241;-65
2022/05/22 09:08:33;;;;;;;7.37;1.67;;;20.60;99.90;;;;;;5104303;27;20682;-66
2022/05/22 09:11:09;;;;;;;5.50;1.50;;;20.90;99.90;;;;;;5102653;27;20245;-66
2022/05/22 09:13:46;;;;;;;4.13;1.20;;;21.70;99.90;;;;;;5103952;27;20755;-65
2022/05/22 09:16:20;;;;;;;4.87;1.30;;;22.50;99.90;;;;;;5102325;27;20233;-65
2022/05/22 09:18:54;;;;;;;3.50;1.23;;;23.40;99.90;;;;;;5104457;27;20631;-66
2022/05/22 09:21:31;;;;;;;4.03;1.33;;;23.70;99.90;;;;;;5107076;27;20254;-65
2022/05/22 09:24:02;;;;;;;3.97;1.40;;;24.10;99.90;;;;;;5101996;27;20785;-66
2022/05/22 09:26:47;;;;;;;4.33;1.10;;;24.40;99.90;;;;;;5100086;27;20857;-66
2022/05/22 09:29:35;;;;;;;5.17;1.50;;;24.40;99.90;;;;;;5101587;27;20333;-66
2022/05/22 09:32:19;;;;;;;4.07;1.40;;;23.80;99.90;;;;;;5101565;27;20751;-65
2022/05/22 09:34:58;;;;;;;5.13;1.50;;;22.90;99.90;;;;;;5097320;27;20318;-66
2022/05/22 09:37:38;;;;;;;4.77;1.40;;;22.80;99.90;;;;;;5103242;27;20269;-66
2022/05/22 09:40:17;;;;;;;3.83;1.30;;;23.60;99.90;;;;;;5101221;27;20241;-66
2022/05/22 09:43:06;;;;;;;3.67;1.20;;;23.90;99.90;;;;;;5099752;27;20260;-66
2022/05/22 09:45:50;;;;;;;3.77;1.27;;;23.10;99.90;;;;;;5096924;27;20390;-65
2022/05/22 09:48:42;;;;;;;3.43;1.20;;;22.60;99.90;;;;;;5100820;28;20241;-65
2022/05/22 09:51:17;;;;;;;4.50;1.10;;;22.20;99.90;;;;;;5102892;27;20233;-66
2022/05/22 09:53:58;;;;;;;3.33;1.10;;;21.90;99.90;;;;;;5101572;27;20709;-66
2022/05/22 09:56:56;;;;;;;3.20;1.10;;;21.70;99.90;;;;;;5100829;28;20237;-66
2022/05/22 09:59:36;;;;;;;2.60;1.00;;;21.90;99.90;;;;;;5100967;28;20340;-66
2022/05/22 10:02:14;;;;;;;3.43;1.10;;;22.60;99.90;;;;;;5102139;28;20294;-65
2022/05/22 10:04:52;;;;;;;3.40;0.90;;;23.80;99.90;;;;;;5097593;28;20263;-65
2022/05/22 10:07:29;;;;;;;3.73;0.93;;;24.90;99.90;;;;;;5100431;28;20574;-65
2022/05/22 10:10:06;;;;;;;3.20;1.30;;;25.20;99.90;;;;;;5102522;28;20237;-66
2022/05/22 10:12:46;;;;;;;4.20;1.17;;;25.80;99.90;;;;;;5105081;28;20248;-65
2022/05/22 10:15:37;;;;;;;5.77;1.30;;;25.10;99.90;;;;;;5101376;28;20246;-66
2022/05/22 10:18:20;;;;;;;4.10;1.30;;;23.70;99.90;;;;;;5104953;28;20248;-66
2022/05/22 10:21:04;;;;;;;3.70;1.10;;;23.80;99.90;;;;;;5103886;28;20357;-65
2022/05/22 10:24:08;;;;;;;4.20;1.10;;;24.00;99.90;;;;;;5098440;28;20248;-66
2022/05/22 10:26:46;;;;;;;1.83;0.97;;;23.60;99.90;;;;;;5091479;28;20238;-65
2022/05/22 10:29:23;;;;;;;3.73;1.30;;;22.70;99.90;;;;;;5099496;28;20326;-66
2022/05/22 10:31:59;;;;;;;3.10;1.17;;;22.50;99.90;;;;;;5101527;28;20281;-66
2022/05/22 10:34:38;;;;;;;4.00;1.07;;;23.30;99.90;;;;;;5105217;27;20239;-66
2022/05/22 10:37:14;;;;;;;3.57;1.03;;;24.10;99.90;;;;;;5108721;27;20609;-66
2022/05/22 10:39:45;;;;;;;3.63;1.30;;;24.10;99.90;;;;;;5110325;27;20237;-66
2022/05/22 10:45:08;;;;;;;4.30;1.30;;;23.40;99.90;;;;;;5101020;27;20328;-66
2022/05/22 10:47:36;;;;;;;4.47;1.20;;;22.90;99.90;;;;;;5102753;27;20257;-65
2022/05/22 10:50:17;;;;;;;3.73;1.03;;;22.40;99.90;;;;;;5103004;27;20253;-66
2022/05/22 10:52:47;;;;;;;5.03;1.10;;;22.20;99.90;;;;;;5106999;27;21225;-65
2022/05/22 10:55:34;;;;;;;2.53;0.83;;;22.90;99.90;;;;;;5105584;27;20986;-65
2022/05/22 10:58:08;;;;;;;2.17;0.80;;;23.50;99.90;;;;;;5106264;27;20501;-66
2022/05/22 11:00:36;;;;;;;4.30;1.27;;;23.20;99.90;;;;;;5105179;27;20257;-66
2022/05/22 11:03:13;;;;;;;2.03;0.77;;;22.60;99.90;;;;;;5108517;27;20601;-65
2022/05/22 11:05:51;;;;;;;2.97;1.10;;;22.70;99.90;;;;;;5105277;27;20619;-66
2022/05/22 11:08:28;;;;;;;2.93;0.97;;;23.40;99.90;;;;;;5105906;27;20243;-65
2022/05/22 11:11:01;;;;;;;3.37;1.10;;;24.60;99.90;;;;;;5106998;27;20233;-67
2022/05/22 11:13:30;;;;;;;4.17;1.00;;;25.60;99.90;;;;;;5108417;27;20706;-67
2022/05/22 11:16:12;;;;;;;3.10;1.00;;;25.90;99.90;;;;;;5109989;27;20236;-67
2022/05/22 11:18:40;;;;;;;3.97;1.10;;;25.40;99.90;;;;;;5106698;27;20328;-67
2022/05/22 11:21:18;;;;;;;2.83;1.00;;;24.80;99.90;;;;;;5109434;27;20371;-68
2022/05/22 11:24:02;;;;;;;2.20;1.00;;;24.10;99.90;;;;;;5108320;27;20247;-67
2022/05/22 11:26:38;;;;;;;4.13;1.17;;;23.50;99.90;;;;;;5110266;27;20324;-67
2022/05/22 11:29:29;;;;;;;3.93;1.10;;;22.40;99.90;;;;;;5110754;27;20243;-67
2022/05/22 11:32:03;;;;;;;5.57;1.27;;;21.90;99.90;;;;;;5115221;27;20240;-66
2022/05/22 11:35:07;;;;;;;3.00;0.97;;;21.80;99.90;;;;;;5109479;27;20232;-67
2022/05/22 11:37:48;;;;;;;2.37;0.90;;;21.80;99.90;;;;;;5057675;27;20272;-67
2022/05/22 11:40:35;;;;;;;3.47;1.43;;;21.80;99.90;;;;;;5108571;27;20240;-66
2022/05/22 11:43:17;;;;;;;3.13;1.07;;;21.90;99.90;;;;;;5109892;27;20332;-66
2022/05/22 11:45:56;;;;;;;3.83;1.50;;;21.90;99.90;;;;;;5111812;27;20731;-67
2022/05/22 11:48:44;;;;;;;5.43;1.10;;;21.90;99.90;;;;;;5112153;27;20328;-66
2022/05/22 11:51:31;;;;;;;3.77;1.27;;;21.70;99.90;;;;;;5112899;27;20704;-67
2022/05/22 11:54:17;;;;;;;3.67;1.30;;;21.50;99.90;;;;;;5107202;27;21250;-66
2022/05/22 11:57:02;;;;;;;4.20;1.20;;;21.40;99.90;;;;;;5108788;27;20248;-67
2022/05/22 11:59:47;;;;;;;3.83;1.20;;;21.10;99.90;;;;;;5106639;27;21175;-66
2022/05/22 12:02:27;;;;;;;4.33;1.23;;;20.70;99.90;;;;;;5110311;27;20247;-67
2022/05/22 12:05:30;;;;;;;6.67;1.60;;;20.50;99.90;;;;;;5106959;27;20268;-65
2022/05/22 12:08:19;;;;;;;4.23;1.23;;;20.60;99.90;;;;;;5103914;27;20332;-67
2022/05/22 12:10:52;;;;;;;3.87;1.33;;;21.10;99.90;;;;;;5109302;27;20313;-68
2022/05/22 12:13:29;;;;;;;5.07;1.20;;;21.50;99.90;;;;;;5097380;27;20316;-68
2022/05/22 12:16:02;;;;;;;4.53;1.40;;;21.60;99.90;;;;;;5101165;27;20241;-68
2022/05/22 12:18:47;;;;;;;3.50;1.30;;;22.00;99.90;;;;;;5101703;27;20242;-69
2022/05/22 12:21:24;;;;;;;5.57;1.53;;;22.20;99.90;;;;;;5102596;27;20237;-68
2022/05/22 12:23:58;;;;;;;6.13;1.37;;;22.30;99.90;;;;;;5097933;27;20252;-68
2022/05/22 12:26:26;;;;;;;4.30;1.60;;;22.40;99.90;;;;;;5103191;27;20286;-67
2022/05/22 12:28:59;;;;;;;3.83;1.20;;;22.60;99.90;;;;;;5101500;27;20242;-66
2022/05/22 12:31:33;;;;;;;5.83;1.60;;;22.70;99.90;;;;;;5100195;27;20252;-67
2022/05/22 12:34:06;;;;;;;3.73;1.17;;;22.60;99.90;;;;;;5102126;27;20253;-68
2022/05/22 12:36:35;;;;;;;6.30;1.57;;;22.50;99.90;;;;;;5103703;27;20246;-66
2022/05/22 12:39:05;;;;;;;3.30;1.10;;;22.30;99.90;;;;;;5095829;27;20246;-67
2022/05/22 12:41:48;;;;;;;3.33;1.10;;;22.30;99.90;;;;;;5102176;27;20245;-68
2022/05/22 12:44:18;;;;;;;5.27;1.53;;;22.10;99.90;;;;;;5103688;27;20279;-67
2022/05/22 12:46:47;;;;;;;6.10;1.50;;;22.20;99.90;;;;;;5104703;27;20241;-66
2022/05/22 12:49:23;;;;;;;5.57;1.50;;;22.10;99.90;;;;;;5104486;27;20245;-68
2022/05/22 12:52:03;;;;;;;3.47;1.27;;;22.40;99.90;;;;;;5102197;27;20604;-66
2022/05/22 12:54:33;;;;;;;7.27;1.63;;;22.50;99.90;;;;;;5104362;27;20337;-68
2022/05/22 12:57:17;;;;;;;3.47;1.20;;;23.00;99.90;;;;;;5102811;27;20269;-68
2022/05/22 12:59:55;;;;;;;5.40;1.20;;;23.20;99.90;;;;;;5104619;27;20426;-67
2022/05/22 13:02:39;;;;;;;4.23;1.10;;;23.10;99.90;;;;;;5103365;27;20328;-67
2022/05/22 13:05:24;;;;;;;4.87;1.03;;;22.60;99.90;;;;;;5104215;27;20336;-68
2022/05/22 13:07:53;;;;;;;5.50;1.60;;;22.20;99.90;;;;;;5102808;27;20351;-67
2022/05/22 13:10:30;;;;;;;5.17;1.43;;;21.90;99.90;;;;;;5104655;27;20251;-66
2022/05/22 13:13:06;;;;;;;6.07;1.73;;;21.60;99.90;;;;;;5100736;27;20241;-67
2022/05/22 13:15:37;;;;;;;4.27;1.63;;;21.40;99.90;;;;;;5100102;27;20233;-68
2022/05/22 13:18:12;;;;;;;4.00;1.33;;;21.20;99.90;;;;;;5099981;27;20242;-67
2022/05/22 13:20:55;;;;;;;7.57;1.40;;;21.20;99.90;;;;;;5100154;27;20237;-67
2022/05/22 13:23:44;;;;;;;4.23;1.30;;;21.30;99.90;;;;;;5096771;27;20250;-66
2022/05/22 13:26:27;;;;;;;4.03;1.20;;;21.60;99.90;;;;;;5103243;27;20605;-66
2022/05/22 13:29:01;;;;;;;5.07;1.30;;;21.80;99.90;;;;;;5101716;27;20247;-67
2022/05/22 13:31:39;;;;;;;5.00;1.30;;;22.00;99.90;;;;;;5101325;27;20269;-66
2022/05/22 13:34:27;;;;;;;4.33;1.23;;;21.90;99.90;;;;;;5103208;27;20331;-67
2022/05/22 13:36:58;;;;;;;5.63;1.50;;;21.70;99.90;;;;;;5102122;27;20256;-68
2022/05/22 13:39:57;;;;;;;4.20;1.40;;;21.30;99.90;;;;;;5099629;27;20607;-67
2022/05/22 13:43:01;;;;;;;3.20;1.30;;;21.30;99.90;;;;;;5098364;27;20238;-68
2022/05/22 13:45:51;;;;;;;4.57;1.33;;;21.30;99.90;;;;;;5101166;28;21148;-67